createdAt,value
2023-01-17T00:01:54.058Z,-2.83
2023-01-17T00:04:41.223Z,-2.77
2023-01-17T00:07:29.691Z,-2.77
2023-01-17T00:09:58.827Z,-2.76
2023-01-17T00:12:29.020Z,-2.78
2023-01-17T00:14:58.964Z,-2.75
2023-01-17T00:17:28.432Z,-2.76
2023-01-17T00:20:18.651Z,-2.77
2023-01-17T00:23:05.693Z,-2.73
2023-01-17T00:25:53.481Z,-2.75
2023-01-17T00:28:20.459Z,-2.79
2023-01-17T00:30:47.744Z,-2.78
2023-01-17T00:33:14.924Z,-2.79
2023-01-17T00:35:43.454Z,-2.77
2023-01-17T00:38:15.463Z,-2.78
2023-01-17T00:40:44.000Z,-2.79
2023-01-17T00:43:30.972Z,-2.81
2023-01-17T00:46:16.504Z,-2.80
2023-01-17T00:49:04.695Z,-2.83
2023-01-17T00:51:53.016Z,-2.84
2023-01-17T00:54:39.193Z,-2.80
2023-01-17T00:57:26.678Z,-2.79
2023-01-17T01:00:12.488Z,-2.78
2023-01-17T01:02:58.966Z,-2.78
2023-01-17T01:05:45.201Z,-2.81
2023-01-17T01:08:40.313Z,-2.80
2023-01-17T01:11:27.993Z,-2.71
2023-01-17T01:14:14.032Z,-2.70
2023-01-17T01:16:59.476Z,-2.74
2023-01-17T01:19:45.098Z,-2.75
2023-01-17T01:22:31.280Z,-2.73
2023-01-17T01:25:18.295Z,-2.66
2023-01-17T01:28:04.070Z,-2.63
2023-01-17T01:30:51.067Z,-2.67
2023-01-17T01:33:21.453Z,-2.67
2023-01-17T01:35:51.000Z,-2.66
2023-01-17T01:38:20.043Z,-2.68
2023-01-17T01:40:52.684Z,-2.67
2023-01-17T01:43:22.242Z,-2.69
2023-01-17T01:45:54.165Z,-2.72
2023-01-17T01:48:34.834Z,-2.71
2023-01-17T01:51:06.086Z,-2.68
2023-01-17T01:53:37.369Z,-2.69
2023-01-17T01:56:11.114Z,-2.69
2023-01-17T01:58:40.191Z,-2.77
2023-01-17T02:01:09.525Z,-2.76
2023-01-17T02:03:39.539Z,-2.77
2023-01-17T02:06:16.265Z,-2.74
2023-01-17T02:08:44.741Z,-2.73
2023-01-17T02:11:14.621Z,-2.71
2023-01-17T02:13:43.342Z,-2.75
2023-01-17T02:16:19.095Z,-2.70
2023-01-17T02:18:54.395Z,-2.72
2023-01-17T02:21:27.810Z,-2.66
2023-01-17T02:24:31.435Z,-2.65
2023-01-17T02:27:06.201Z,-2.68
2023-01-17T02:30:18.750Z,-2.67
2023-01-17T02:32:54.967Z,-2.69
2023-01-17T02:35:29.986Z,-2.71
2023-01-17T02:38:04.689Z,-2.68
2023-01-17T02:40:36.179Z,-2.67
2023-01-17T02:43:10.817Z,-2.64
2023-01-17T02:45:39.326Z,-2.65
2023-01-17T02:48:10.902Z,-2.60
2023-01-17T02:50:53.848Z,-2.64
2023-01-17T02:53:31.917Z,-2.66
2023-01-17T02:56:07.638Z,-2.63
2023-01-17T02:58:55.093Z,-2.61
2023-01-17T03:01:30.217Z,-2.54
2023-01-17T03:04:03.375Z,-2.59
2023-01-17T03:06:34.975Z,-2.60
2023-01-17T03:09:03.716Z,-2.62
2023-01-17T03:11:32.039Z,-2.65
2023-01-17T03:14:02.622Z,-2.65
2023-01-17T03:16:33.909Z,-2.66
2023-01-17T03:19:03.647Z,-2.62
2023-01-17T03:21:31.978Z,-2.59
2023-01-17T03:24:00.318Z,-2.57
2023-01-17T03:26:29.121Z,-2.62
2023-01-17T03:28:57.411Z,-2.61
2023-01-17T03:31:26.116Z,-2.64
2023-01-17T03:33:54.376Z,-2.65
2023-01-17T03:36:24.009Z,-2.61
2023-01-17T03:38:52.333Z,-2.58
2023-01-17T03:41:20.630Z,-2.54
2023-01-17T03:43:50.743Z,-2.60
2023-01-17T03:46:23.082Z,-2.56
2023-01-17T03:48:51.464Z,-2.58
2023-01-17T03:51:20.092Z,-2.54
2023-01-17T03:53:52.235Z,-2.54
2023-01-17T03:56:20.558Z,-2.52
2023-01-17T03:58:49.016Z,-2.49
2023-01-17T04:01:17.472Z,-2.49
2023-01-17T04:03:47.394Z,-2.48
2023-01-17T04:06:15.647Z,-2.48
2023-01-17T04:08:44.039Z,-2.44
2023-01-17T04:11:13.779Z,-2.41
2023-01-17T04:13:42.019Z,-2.34
2023-01-17T04:16:12.296Z,-2.35
2023-01-17T04:18:40.679Z,-2.42
2023-01-17T04:21:09.205Z,-2.39
2023-01-17T04:23:37.669Z,-2.37
2023-01-17T04:26:06.271Z,-2.38
2023-01-17T04:28:35.942Z,-2.37
2023-01-17T04:31:04.911Z,-2.38
2023-01-17T04:33:33.196Z,-2.35
2023-01-17T04:36:01.540Z,-2.30
2023-01-17T04:38:29.983Z,-2.31
2023-01-17T04:40:58.218Z,-2.32
2023-01-17T04:43:26.518Z,-2.31
2023-01-17T04:46:01.835Z,-2.36
2023-01-17T04:48:31.525Z,-2.35
2023-01-17T04:51:03.670Z,-2.38
2023-01-17T04:53:34.240Z,-2.41
2023-01-17T04:56:02.949Z,-2.35
2023-01-17T04:58:31.684Z,-2.39
2023-01-17T05:01:04.361Z,-2.36
2023-01-17T05:03:33.019Z,-2.35
2023-01-17T05:06:01.346Z,-2.29
2023-01-17T05:08:33.263Z,-2.30
2023-01-17T05:11:01.516Z,-2.31
2023-01-17T05:13:31.339Z,-2.30
2023-01-17T05:15:59.853Z,-2.31
2023-01-17T05:18:29.659Z,-2.36
2023-01-17T05:21:03.010Z,-2.35
2023-01-17T05:23:31.417Z,-2.37
2023-01-17T05:25:59.735Z,-2.36
2023-01-17T05:28:28.149Z,-2.35
2023-01-17T05:30:56.559Z,-2.39
2023-01-17T05:33:25.490Z,-2.39
2023-01-17T05:35:55.285Z,-2.43
2023-01-17T05:38:25.131Z,-2.46
2023-01-17T05:40:53.435Z,-2.43
2023-01-17T05:43:22.273Z,-2.40
2023-01-17T05:45:50.868Z,-2.41
2023-01-17T05:48:19.166Z,-2.44
2023-01-17T05:50:47.647Z,-2.39
2023-01-17T05:53:18.264Z,-2.39
2023-01-17T05:55:48.009Z,-2.41
2023-01-17T05:58:18.199Z,-2.42
2023-01-17T06:00:48.430Z,-2.41
2023-01-17T06:03:17.241Z,-2.40
2023-01-17T06:05:47.028Z,-2.36
2023-01-17T06:08:17.255Z,-2.39
2023-01-17T06:10:45.787Z,-2.39
2023-01-17T06:13:16.858Z,-2.38
2023-01-17T06:15:48.658Z,-2.39
2023-01-17T06:18:18.049Z,-2.39
2023-01-17T06:20:46.490Z,-2.35
2023-01-17T06:23:17.175Z,-2.33
2023-01-17T06:25:47.154Z,-2.34
2023-01-17T06:28:16.665Z,-2.35
2023-01-17T06:30:45.268Z,-2.32
2023-01-17T06:33:14.074Z,-2.30
2023-01-17T06:35:49.295Z,-2.26
2023-01-17T06:38:21.772Z,-2.24
2023-01-17T06:40:50.228Z,-2.25
2023-01-17T06:43:19.906Z,-2.20
2023-01-17T06:45:51.086Z,-2.17
2023-01-17T06:48:19.624Z,-2.14
2023-01-17T06:50:49.886Z,-2.14
2023-01-17T06:53:18.281Z,-2.18
2023-01-17T06:55:48.099Z,-2.16
2023-01-17T06:58:16.393Z,-2.15
2023-01-17T07:00:46.693Z,-2.12
2023-01-17T07:03:20.363Z,-2.09
2023-01-17T07:05:49.128Z,-2.10
2023-01-17T07:08:18.159Z,-2.07
2023-01-17T07:10:50.559Z,-2.11
2023-01-17T07:13:18.927Z,-2.08
2023-01-17T07:15:52.933Z,-2.04
2023-01-17T07:18:23.637Z,-2.02
2023-01-17T07:20:52.203Z,-2.03
2023-01-17T07:23:21.896Z,-1.93
2023-01-17T07:25:55.695Z,-1.90
2023-01-17T07:28:24.360Z,-1.89
2023-01-17T07:30:53.007Z,-1.91
2023-01-17T07:33:24.623Z,-1.86
2023-01-17T07:35:53.921Z,-1.86
2023-01-17T07:38:23.146Z,-1.84
2023-01-17T07:40:51.554Z,-1.85
2023-01-17T07:43:32.995Z,-1.79
2023-01-17T07:46:02.245Z,-1.74
2023-01-17T07:48:32.158Z,-1.93
2023-01-17T07:51:06.371Z,-1.76
2023-01-17T07:53:34.703Z,-1.76
2023-01-17T07:56:04.441Z,-1.67
2023-01-17T07:58:35.000Z,-1.63
2023-01-17T08:01:04.434Z,-1.64
2023-01-17T08:03:36.445Z,-1.58
2023-01-17T08:06:09.323Z,-1.56
2023-01-17T08:08:37.824Z,-1.50
2023-01-17T08:11:06.473Z,-1.51
2023-01-17T08:13:36.212Z,-1.52
2023-01-17T08:16:08.107Z,-1.55
2023-01-17T08:18:36.611Z,-1.56
2023-01-17T08:21:14.516Z,-1.51
2023-01-17T08:23:42.796Z,-1.50
2023-01-17T08:26:12.385Z,-1.48
2023-01-17T08:28:42.283Z,-1.43
2023-01-17T08:31:11.422Z,-1.41
2023-01-17T08:33:39.950Z,-1.40
2023-01-17T08:36:10.816Z,-1.30
2023-01-17T08:38:39.266Z,-1.24
2023-01-17T08:41:10.201Z,-1.22
2023-01-17T08:43:38.522Z,-1.19
2023-01-17T08:46:08.290Z,-1.12
2023-01-17T08:48:36.845Z,-1.11
2023-01-17T08:51:05.452Z,-1.13
2023-01-17T08:53:33.765Z,-1.07
2023-01-17T08:56:03.421Z,-1.02
2023-01-17T08:58:33.419Z,-0.89
2023-01-17T09:01:02.972Z,-0.80
2023-01-17T09:03:33.206Z,-0.76
2023-01-17T09:06:06.150Z,-0.81
2023-01-17T09:08:35.612Z,-0.82
2023-01-17T09:11:05.180Z,-0.74
2023-01-17T09:13:33.581Z,-0.80
2023-01-17T09:16:02.277Z,-0.70
2023-01-17T09:18:33.354Z,-0.61
2023-01-17T09:21:01.715Z,-0.69
2023-01-17T09:23:31.748Z,-0.60
2023-01-17T09:26:01.253Z,-0.60
2023-01-17T09:28:33.378Z,-0.70
2023-01-17T09:31:08.237Z,-0.66
2023-01-17T09:33:38.468Z,-0.62
2023-01-17T09:36:10.279Z,-0.65
2023-01-17T09:38:39.146Z,-0.65
2023-01-17T09:41:22.150Z,-0.64
2023-01-17T09:43:53.290Z,-0.60
2023-01-17T09:46:24.129Z,-0.60
2023-01-17T09:49:04.071Z,-0.59
2023-01-17T09:51:32.957Z,-0.51
2023-01-17T09:54:02.566Z,-0.53
2023-01-17T09:56:33.669Z,-0.53
2023-01-17T09:59:32.710Z,-0.54
2023-01-17T10:02:18.572Z,-0.55
2023-01-17T10:04:58.240Z,-0.52
2023-01-17T10:07:35.433Z,-0.57
2023-01-17T10:10:23.591Z,-0.53
2023-01-17T10:12:56.642Z,-0.53
2023-01-17T10:15:49.023Z,-0.56
2023-01-17T10:18:47.349Z,-0.57
2023-01-17T10:21:24.311Z,-0.56
2023-01-17T10:24:16.540Z,-0.49
2023-01-17T10:26:48.675Z,-0.42
2023-01-17T10:29:20.941Z,-0.41
2023-01-17T10:31:52.777Z,-0.41
2023-01-17T10:34:25.147Z,-0.41
2023-01-17T10:37:00.472Z,-0.36
2023-01-17T10:39:32.855Z,-0.26
2023-01-17T10:42:09.144Z,-0.25
2023-01-17T10:44:48.142Z,-0.26
2023-01-17T10:47:21.334Z,-0.35
2023-01-17T10:49:52.178Z,-0.28
2023-01-17T10:52:27.666Z,-0.25
2023-01-17T10:55:05.258Z,-0.20
2023-01-17T10:57:41.173Z,-0.24
2023-01-17T11:00:31.247Z,-0.22
2023-01-17T11:03:00.142Z,-0.09
2023-01-17T11:05:31.283Z,-0.05
2023-01-17T11:08:02.879Z,0.03
2023-01-17T11:10:38.244Z,0.00
2023-01-17T11:13:08.380Z,0.02
2023-01-17T11:15:40.763Z,0.04
2023-01-17T11:18:17.049Z,-0.01
2023-01-17T11:20:45.693Z,-0.02
2023-01-17T11:23:22.189Z,0.04
2023-01-17T11:25:51.949Z,-0.02
2023-01-17T11:28:26.167Z,-0.01
2023-01-17T11:30:57.072Z,-0.18
2023-01-17T11:33:45.445Z,-0.01
2023-01-17T11:36:27.561Z,-0.01
2023-01-17T11:38:58.817Z,0.03
2023-01-17T11:41:28.341Z,0.08
2023-01-17T11:43:59.451Z,0.02
2023-01-17T11:46:29.922Z,0.06
2023-01-17T11:48:59.714Z,0.13
2023-01-17T11:51:30.211Z,0.15
2023-01-17T11:54:10.105Z,0.18
2023-01-17T11:56:40.805Z,0.22
2023-01-17T11:59:20.287Z,0.26
2023-01-17T12:01:56.075Z,0.30
2023-01-17T12:04:26.141Z,0.31
2023-01-17T12:07:17.275Z,0.31
2023-01-17T12:09:53.811Z,0.35
2023-01-17T12:12:47.430Z,0.35
2023-01-17T12:15:28.160Z,0.35
2023-01-17T12:18:13.774Z,0.35
2023-01-17T12:20:49.687Z,0.37
2023-01-17T12:23:30.609Z,0.41
2023-01-17T12:26:09.747Z,0.38
2023-01-17T12:28:52.186Z,0.37
2023-01-17T12:31:27.747Z,0.35
2023-01-17T12:33:58.463Z,0.38
2023-01-17T12:36:40.284Z,0.40
2023-01-17T12:39:12.125Z,0.41
2023-01-17T12:41:54.218Z,0.36
2023-01-17T12:44:34.945Z,0.39
2023-01-17T12:47:07.739Z,0.41
2023-01-17T12:49:42.122Z,0.43
2023-01-17T12:52:15.533Z,0.50
2023-01-17T12:54:44.267Z,0.47
2023-01-17T12:57:16.827Z,0.51
2023-01-17T12:59:49.586Z,0.53
2023-01-17T13:02:23.553Z,0.54
2023-01-17T13:04:59.004Z,0.53
2023-01-17T13:07:36.568Z,0.51
2023-01-17T13:10:19.213Z,0.45
2023-01-17T13:12:50.347Z,0.45
2023-01-17T13:15:21.158Z,0.47
2023-01-17T13:17:51.834Z,0.44
2023-01-17T13:20:28.979Z,0.51
2023-01-17T13:22:58.446Z,0.50
2023-01-17T13:25:35.250Z,0.52
2023-01-17T13:28:19.227Z,0.53
2023-01-17T13:30:58.507Z,0.54
2023-01-17T13:33:43.627Z,0.50
2023-01-17T13:36:30.073Z,0.52
2023-01-17T13:39:17.950Z,0.54
2023-01-17T13:41:49.246Z,0.50
2023-01-17T13:44:24.756Z,0.50
2023-01-17T13:47:02.059Z,0.51
2023-01-17T13:49:45.227Z,0.46
2023-01-17T13:52:33.213Z,0.45
2023-01-17T13:55:03.448Z,0.39
2023-01-17T13:57:40.914Z,0.40
2023-01-17T14:00:42.319Z,0.40
2023-01-17T14:03:13.295Z,0.43
2023-01-17T14:05:57.688Z,0.44
2023-01-17T14:08:27.451Z,0.45
2023-01-17T14:11:09.855Z,0.43
2023-01-17T14:13:39.730Z,0.38
2023-01-17T14:16:24.440Z,0.37
2023-01-17T14:18:54.727Z,0.38
2023-01-17T14:21:24.984Z,0.37
2023-01-17T14:23:58.700Z,0.37
2023-01-17T14:26:32.850Z,0.37
2023-01-17T14:29:39.655Z,0.40
2023-01-17T14:32:11.622Z,0.39
2023-01-17T14:34:41.694Z,0.48
2023-01-17T14:37:21.817Z,0.44
2023-01-17T14:39:51.842Z,0.45
2023-01-17T14:42:22.499Z,0.52
2023-01-17T14:44:53.926Z,0.55
2023-01-17T14:47:22.717Z,0.53
2023-01-17T14:50:10.880Z,0.54
2023-01-17T14:52:39.762Z,0.57
2023-01-17T14:55:16.713Z,0.55
2023-01-17T14:57:54.870Z,0.64
2023-01-17T15:00:25.904Z,0.57
2023-01-17T15:02:59.403Z,0.62
2023-01-17T15:05:32.934Z,0.62
2023-01-17T15:08:01.346Z,0.60
2023-01-17T15:10:31.759Z,0.58
2023-01-17T15:13:07.503Z,0.60
2023-01-17T15:15:38.632Z,0.59
2023-01-17T15:18:27.401Z,0.62
2023-01-17T15:21:00.555Z,0.61
2023-01-17T15:23:34.732Z,0.65
2023-01-17T15:26:04.906Z,0.67
2023-01-17T15:28:34.442Z,0.69
2023-01-17T15:31:08.944Z,0.69
2023-01-17T15:33:42.170Z,0.68
2023-01-17T15:36:25.016Z,0.75
2023-01-17T15:39:01.638Z,0.71
2023-01-17T15:41:35.097Z,0.76
2023-01-17T15:44:03.610Z,0.80
2023-01-17T15:46:34.508Z,0.83
2023-01-17T15:49:24.175Z,0.86
2023-01-17T15:51:56.037Z,0.80
2023-01-17T15:54:35.099Z,0.87
2023-01-17T15:57:05.101Z,0.85
2023-01-17T15:59:43.525Z,0.92
2023-01-17T16:02:27.461Z,0.89
2023-01-17T16:04:56.019Z,0.95
2023-01-17T16:07:31.976Z,0.94
2023-01-17T16:10:09.764Z,0.89
2023-01-17T16:12:38.107Z,0.86
2023-01-17T16:15:13.430Z,0.83
2023-01-17T16:17:43.595Z,0.83
2023-01-17T16:20:16.606Z,0.78
2023-01-17T16:22:46.749Z,0.75
2023-01-17T16:25:19.526Z,0.76
2023-01-17T16:27:50.768Z,0.68
2023-01-17T16:30:21.597Z,0.67
2023-01-17T16:32:50.753Z,0.66
2023-01-17T16:35:21.428Z,0.60
2023-01-17T16:37:52.639Z,0.60
2023-01-17T16:40:23.190Z,0.59
2023-01-17T16:42:52.075Z,0.57
2023-01-17T16:45:23.666Z,0.58
2023-01-17T16:47:56.070Z,0.55
2023-01-17T16:50:25.697Z,0.57
2023-01-17T16:52:57.216Z,0.57
2023-01-17T16:55:29.988Z,0.56
2023-01-17T16:58:00.665Z,0.54
2023-01-17T17:00:28.956Z,0.52
2023-01-17T17:02:57.350Z,0.49
2023-01-17T17:05:27.151Z,0.52
2023-01-17T17:07:57.113Z,0.51
2023-01-17T17:10:27.750Z,0.50
2023-01-17T17:12:56.055Z,0.50
2023-01-17T17:15:24.570Z,0.50
2023-01-17T17:17:55.221Z,0.51
2023-01-17T17:20:25.268Z,0.47
2023-01-17T17:22:53.900Z,0.49
2023-01-17T17:25:23.731Z,0.50
2023-01-17T17:27:52.598Z,0.49
2023-01-17T17:30:22.867Z,0.52
2023-01-17T17:32:51.286Z,0.51
2023-01-17T17:35:19.599Z,0.53
2023-01-17T17:37:47.898Z,0.50
2023-01-17T17:40:16.563Z,0.51
2023-01-17T17:42:46.247Z,0.52
2023-01-17T17:45:14.541Z,0.50
2023-01-17T17:47:44.699Z,0.51
2023-01-17T17:50:13.671Z,0.54
2023-01-17T17:52:44.410Z,0.50
2023-01-17T17:55:13.252Z,0.51
2023-01-17T17:57:41.560Z,0.57
2023-01-17T18:00:13.312Z,0.56
2023-01-17T18:03:04.023Z,0.56
2023-01-17T18:05:36.832Z,0.57
2023-01-17T18:08:07.846Z,0.58
2023-01-17T18:10:36.143Z,0.56
2023-01-17T18:13:04.556Z,0.55
2023-01-17T18:15:34.199Z,0.58
2023-01-17T18:18:06.660Z,0.58
2023-01-17T18:20:34.994Z,0.57
2023-01-17T18:23:03.758Z,0.56
2023-01-17T18:25:32.104Z,0.49
2023-01-17T18:28:00.387Z,0.60
2023-01-17T18:30:28.979Z,0.59
2023-01-17T18:32:58.818Z,0.60
2023-01-17T18:35:28.972Z,0.58
2023-01-17T18:37:57.722Z,0.57
2023-01-17T18:40:26.087Z,0.58
2023-01-17T18:42:54.758Z,0.58
2023-01-17T18:45:23.215Z,0.60
2023-01-17T18:47:51.736Z,0.61
2023-01-17T18:50:21.558Z,0.57
2023-01-17T18:52:49.844Z,0.59
2023-01-17T18:55:18.646Z,0.58
2023-01-17T18:57:47.190Z,0.58
2023-01-17T19:00:16.570Z,0.56
2023-01-17T19:02:53.937Z,0.53
2023-01-17T19:05:24.696Z,0.55
2023-01-17T19:07:53.257Z,0.56
2023-01-17T19:10:21.942Z,0.57
2023-01-17T19:12:50.275Z,0.53
2023-01-17T19:15:18.547Z,0.54
2023-01-17T19:17:46.891Z,0.47
2023-01-17T19:20:16.146Z,0.41
2023-01-17T19:22:45.817Z,0.38
2023-01-17T19:25:14.239Z,0.35
2023-01-17T19:27:43.606Z,0.36
2023-01-17T19:30:17.618Z,0.34
2023-01-17T19:32:46.554Z,0.31
2023-01-17T19:35:16.132Z,0.29
2023-01-17T19:37:47.711Z,0.28
2023-01-17T19:40:16.502Z,0.28
2023-01-17T19:42:44.848Z,0.28
2023-01-17T19:45:14.590Z,0.26
2023-01-17T19:47:42.885Z,0.23
2023-01-17T19:50:12.280Z,0.23
2023-01-17T19:52:42.315Z,0.23
2023-01-17T19:55:13.952Z,0.25
2023-01-17T19:57:42.371Z,0.23
2023-01-17T20:00:14.054Z,0.22
2023-01-17T20:02:44.725Z,0.22
2023-01-17T20:05:14.010Z,0.19
2023-01-17T20:07:42.281Z,0.16
2023-01-17T20:10:12.941Z,0.19
2023-01-17T20:12:42.053Z,0.16
2023-01-17T20:15:10.925Z,0.11
2023-01-17T20:17:39.282Z,0.02
2023-01-17T20:20:12.893Z,-0.03
2023-01-17T20:22:42.935Z,-0.03
2023-01-17T20:25:13.300Z,-0.07
2023-01-17T20:27:42.958Z,-0.10
2023-01-17T20:30:20.083Z,-0.12
2023-01-17T20:32:49.474Z,-0.13
2023-01-17T20:35:18.200Z,-0.11
2023-01-17T20:37:46.558Z,-0.13
2023-01-17T20:40:17.702Z,-0.10
2023-01-17T20:42:46.012Z,-0.08
2023-01-17T20:45:17.194Z,-0.13
2023-01-17T20:47:45.536Z,-0.19
2023-01-17T20:50:13.831Z,-0.24
2023-01-17T20:52:42.091Z,-0.28
2023-01-17T20:55:10.913Z,-0.29
2023-01-17T20:57:40.850Z,-0.29
2023-01-17T21:00:10.323Z,-0.31
2023-01-17T21:02:38.724Z,-0.30
2023-01-17T21:05:10.305Z,-0.30
2023-01-17T21:07:40.959Z,-0.27
2023-01-17T21:10:10.051Z,-0.26
2023-01-17T21:12:38.374Z,-0.31
2023-01-17T21:15:10.023Z,-0.30
2023-01-17T21:17:43.055Z,-0.37
2023-01-17T21:20:15.351Z,-0.35
2023-01-17T21:22:43.690Z,-0.38
2023-01-17T21:25:12.111Z,-0.35
2023-01-17T21:27:41.227Z,-0.38
2023-01-17T21:30:12.749Z,-0.41
2023-01-17T21:32:41.124Z,-0.40
2023-01-17T21:35:10.637Z,-0.40
2023-01-17T21:37:41.269Z,-0.43
2023-01-17T21:40:11.003Z,-0.41
2023-01-17T21:42:39.307Z,-0.39
2023-01-17T21:45:10.960Z,-0.38
2023-01-17T21:47:44.579Z,-0.38
2023-01-17T21:50:25.100Z,-0.38
2023-01-17T21:53:00.739Z,-0.36
2023-01-17T21:55:46.707Z,-0.35
2023-01-17T21:58:35.079Z,-0.37
2023-01-17T22:01:11.209Z,-0.39
2023-01-17T22:03:41.000Z,-0.38
2023-01-17T22:06:10.532Z,-0.38
2023-01-17T22:08:39.539Z,-0.38
2023-01-17T22:11:09.134Z,-0.38
2023-01-17T22:13:37.742Z,-0.37
2023-01-17T22:16:10.972Z,-0.39
2023-01-17T22:18:40.761Z,-0.35
2023-01-17T22:21:11.918Z,-0.41
2023-01-17T22:23:41.110Z,-0.39
2023-01-17T22:26:11.932Z,-0.43
2023-01-17T22:28:40.810Z,-0.40
2023-01-17T22:31:10.902Z,-0.41
2023-01-17T22:33:41.861Z,-0.43
2023-01-17T22:36:13.793Z,-0.42
2023-01-17T22:38:43.144Z,-0.41
2023-01-17T22:41:13.240Z,-0.41
2023-01-17T22:43:42.908Z,-0.43
2023-01-17T22:46:13.609Z,-0.44
2023-01-17T22:48:43.593Z,-0.41
2023-01-17T22:51:16.520Z,-0.45
2023-01-17T22:53:45.833Z,-0.41
2023-01-17T22:56:16.095Z,-0.47
2023-01-17T22:58:45.126Z,-0.42
2023-01-17T23:01:14.659Z,-0.50
2023-01-17T23:03:45.907Z,-0.49
2023-01-17T23:06:16.425Z,-0.53
2023-01-17T23:08:46.270Z,-0.53
2023-01-17T23:11:42.839Z,-0.52
2023-01-17T23:14:18.497Z,-0.53
2023-01-17T23:17:10.441Z,-0.50
2023-01-17T23:19:41.697Z,-0.49
2023-01-17T23:22:17.615Z,-0.47
2023-01-17T23:24:48.205Z,-0.47
2023-01-17T23:27:35.992Z,-0.49
2023-01-17T23:30:06.197Z,-0.47
2023-01-17T23:32:34.946Z,-0.45
2023-01-17T23:35:04.826Z,-0.46
2023-01-17T23:38:02.682Z,-0.44
2023-01-17T23:40:32.923Z,-0.47
2023-01-17T23:43:18.795Z,-0.45
2023-01-17T23:45:47.120Z,-0.42
2023-01-17T23:48:15.741Z,-0.42
2023-01-17T23:50:47.311Z,-0.36
2023-01-17T23:53:22.530Z,-0.38
2023-01-17T23:55:52.500Z,-0.40
2023-01-17T23:58:23.965Z,-0.45
